WetterOnline ( https://www.wetteronline.de )

Wetter aktuell Eisenhüttenstadt

Aktuelles Wetter: Manschnow (16m)

6-stündlich | Neueste Meldungen
Ortszeit Temperatur Wetter
Sa, 04.02. 13:00 2.6° C bewölkt
Sa, 04.02. 7:00 0.0° C bedeckt
Sa, 04.02. 1:00 3.4° C bedeckt
Fr, 03.02. 19:00 5.9° C bedeckt
Fr, 03.02. 13:00 8.3° C bewölkt
Fr, 03.02. 7:00 1.8° C leichter Regen
Fr, 03.02. 1:00 -1.3° C bedeckt
Do, 02.02. 19:00 -1.0° C bewölkt
Ortszeit Temperatur Wetter
Sa, 04.02. 15:30 2.6° C fast wolkenlos
Sa, 04.02. 15:20 2.6° C fast wolkenlos
Sa, 04.02. 15:10 2.2° C leicht bewölkt
Sa, 04.02. 15:00 2.6° C leicht bewölkt
Sa, 04.02. 14:50 2.6° C leicht bewölkt
Sa, 04.02. 14:40 2.8° C leicht bewölkt
Sa, 04.02. 14:30 2.9° C bewölkt
Sa, 04.02. 14:00 2.8° C bedeckt
Sa, 04.02. 13:30 3.0° C bewölkt
Sa, 04.02. 13:00 2.6° C bewölkt
Sa, 04.02. 12:30 2.5° C bewölkt
Ortszeit Relative Feuchte Sichtweite
Sa, 04.02. 13:00 69% 65 km
Sa, 04.02. 7:00 92% 45 km
Sa, 04.02. 1:00 69% 60 km
Fr, 03.02. 19:00 86% 26 km
Fr, 03.02. 13:00 80% 45 km
Fr, 03.02. 7:00 96% 14 km
Fr, 03.02. 1:00 93% 30 km
Do, 02.02. 19:00 88% 65 km
Ortszeit Relative Feuchte Sichtweite
Sa, 04.02. 15:30 58% 60 km
Sa, 04.02. 15:20 58% -
Sa, 04.02. 15:10 63% -
Sa, 04.02. 15:00 57% >70 km
Sa, 04.02. 14:50 57% -
Sa, 04.02. 14:40 63% -
Sa, 04.02. 14:30 60% 55 km
Sa, 04.02. 14:00 59% >70 km
Sa, 04.02. 13:30 55% 60 km
Sa, 04.02. 13:00 69% 65 km
Sa, 04.02. 12:30 69% 50 km
Ortszeit Niederschlagsmenge Niederschlagsart
Sa, 04.02. 13:00 0.1 l/m2 in 6 Std. Schnee
Sa, 04.02. 7:00 0.5 l/m2 in 12 Std. -
Sa, 04.02. 1:00 0.5 l/m2 in 6 Std. Regen
Fr, 03.02. 19:00 1 l/m2 in 12 Std. Regen
Fr, 03.02. 13:00 1 l/m2 in 6 Std. Regen
Fr, 03.02. 7:00 2 l/m2 in 12 Std. Schnee, Regen
Fr, 03.02. 1:00 0.0 l/m2 in 6 Std. -
Do, 02.02. 19:00 0.1 l/m2 in 12 Std. -
Ortszeit Niederschlagsmenge Niederschlagsart
Sa, 04.02. 15:30 0.0 l/m2 in 30 Min -
Sa, 04.02. 15:20 keine Meldung -
Sa, 04.02. 15:10 keine Meldung -
Sa, 04.02. 15:00 0.0 l/m2 in 1 Std. -
Sa, 04.02. 14:50 keine Meldung -
Sa, 04.02. 14:40 keine Meldung -
Sa, 04.02. 14:30 0.0 l/m2 in 30 Min -
Sa, 04.02. 14:00 0.0 l/m2 in 1 Std. -
Sa, 04.02. 13:30 0.0 l/m2 in 30 Min -
Sa, 04.02. 13:00 <0.05 l/m2 in 1 Std. Schnee
Sa, 04.02. 12:30 0.0 l/m2 in 30 Min -
Ortszeit Stärke Spitze Richtung
km/h Bft. km/h Grad Sektor
Sa, 04.02. 13:00 11 2 29 330° NW
Sa, 04.02. 7:00 11 2 58 310° NW
Sa, 04.02. 1:00 30 5 57 360° N
Fr, 03.02. 19:00 32 5 61 290° W
Fr, 03.02. 13:00 33 5 70 290° W
Fr, 03.02. 7:00 17 3 30 210° SW
Fr, 03.02. 1:00 7 2 11 170° S
Do, 02.02. 19:00 7 2 43 280° W
Ortszeit Stärke Spitze Richtung
km/h Bft. km/h Grad Sektor
Sa, 04.02. 15:30 11 2 29 340° N
Sa, 04.02. 15:20 11 2 - 340° N
Sa, 04.02. 15:10 9 2 - 330° NW
Sa, 04.02. 15:00 18 3 32 350° N
Sa, 04.02. 14:50 18 3 - 350° N
Sa, 04.02. 14:40 11 2 - 340° N
Sa, 04.02. 14:30 13 3 24 340° N
Sa, 04.02. 14:00 15 3 30 350° N
Sa, 04.02. 13:30 14 3 29 360° N
Sa, 04.02. 13:00 11 2 29 330° NW
Sa, 04.02. 12:30 14 3 29 350° N
Ortszeit Untergrenze Bedeckung Gattung
total tief tief mittel hoch
Sa, 04.02. 13:00 900 m 7/8 7/8 - - -
Sa, 04.02. 7:00 1500 m 8/8 8/8 - - -
Sa, 04.02. 1:00 720 m 8/8 8/8 - - -
Fr, 03.02. 19:00 630 m 8/8 8/8 - - -
Fr, 03.02. 13:00 960 m 7/8 7/8 - - -
Fr, 03.02. 7:00 210 m 8/8 8/8 - - -
Fr, 03.02. 1:00 3000 m 8/8 8/8 - - -
Do, 02.02. 19:00 6600 m 8/8 7/8 - - -
Ortszeit Bedeckungsgrad in Achtel und Wolkenuntergrenze
Sa, 04.02. 15:30 1(1230m)
Sa, 04.02. 15:20 1(1230m)
Sa, 04.02. 15:10 2
Sa, 04.02. 15:00 3(1110m) 4(1380m)
Sa, 04.02. 14:50 3(1110m) 4(1380m)
Sa, 04.02. 14:40 4
Sa, 04.02. 14:30 4(1110m) 7(1410m)
Sa, 04.02. 14:00 5(1200m) 8(1440m)
Sa, 04.02. 13:30 7(1350m) 7(1500m)
Sa, 04.02. 13:00 4(900m) 7(1230m)
Sa, 04.02. 12:30 1(720m) 7(1380m)
Ortszeit Luftdruck NN (hPa) Tendenz (hPa in 3 Std.)
Sa, 04.02. 13:00 1036 + 1,5
Sa, 04.02. 7:00 1031 + 4,8
Sa, 04.02. 1:00 1019 + 6,6
Fr, 03.02. 19:00 1010 + 1,1
Fr, 03.02. 13:00 1008 - 1,9
Fr, 03.02. 7:00 1014 - 4,8
Fr, 03.02. 1:00 1023 - 0,8
Do, 02.02. 19:00 1022 + 3,5
Ortszeit Luftdruck NN (hPa) Tendenz (hPa in 3 Std.)
Sa, 04.02. 15:30 1037 + 1,3
Sa, 04.02. 15:20 1037 keine Meldung
Sa, 04.02. 15:10 1037 keine Meldung
Sa, 04.02. 15:00 1037 + 1,2
Sa, 04.02. 14:50 1037 keine Meldung
Sa, 04.02. 14:40 1037 keine Meldung
Sa, 04.02. 14:30 1036 + 1,0
Sa, 04.02. 14:00 1036 + 1,1
Sa, 04.02. 13:30 1036 + 1,1
Sa, 04.02. 13:00 1036 + 1,5
Sa, 04.02. 12:30 1036 + 2,0
Ortszeit Schneehöhe (cm)
Sa, 04.02. 13:00 0
Sa, 04.02. 7:00 0
Sa, 04.02. 1:00 0
Fr, 03.02. 19:00 0
Fr, 03.02. 13:00 0
Fr, 03.02. 7:00 0
Fr, 03.02. 1:00 0
Do, 02.02. 19:00 0
Ortszeit Schneehöhe (cm)
Sa, 04.02. 15:30 0
Sa, 04.02. 15:20 0
Sa, 04.02. 15:10 0
Sa, 04.02. 15:00 0
Sa, 04.02. 14:50 0
Sa, 04.02. 14:40 0
Sa, 04.02. 14:30 0
Sa, 04.02. 14:00 0
Sa, 04.02. 13:30 0
Sa, 04.02. 13:00 0
Sa, 04.02. 12:30 0
Link zu dieser Seite / Seite empfehlen

Das Wetter in ...